createdAt,value
2023-03-11T00:00:40.416Z,22.38
2023-03-11T00:03:09.560Z,25.58
2023-03-11T00:05:39.475Z,23.88
2023-03-11T00:08:08.974Z,22.65
2023-03-11T00:10:45.605Z,21.88
2023-03-11T00:13:14.422Z,20.58
2023-03-11T00:15:45.224Z,20.13
2023-03-11T00:18:13.840Z,17.70
2023-03-11T00:20:43.764Z,20.35
2023-03-11T00:23:12.487Z,20.88
2023-03-11T00:25:39.717Z,19.23
2023-03-11T00:28:13.221Z,19.95
2023-03-11T00:30:41.162Z,21.80
2023-03-11T00:33:08.672Z,18.42
2023-03-11T00:35:36.508Z,20.27
2023-03-11T00:38:06.537Z,18.95
2023-03-11T00:40:34.771Z,20.63
2023-03-11T00:43:01.430Z,18.80
2023-03-11T00:45:29.336Z,20.70
2023-03-11T00:47:56.239Z,21.63
2023-03-11T00:50:34.876Z,18.85
2023-03-11T00:53:02.267Z,19.55
2023-03-11T00:55:32.366Z,22.15
2023-03-11T00:58:02.039Z,20.55
2023-03-11T01:00:31.038Z,23.60
2023-03-11T01:02:59.339Z,20.70
2023-03-11T01:05:29.416Z,19.75
2023-03-11T01:07:56.045Z,21.52
2023-03-11T01:10:22.911Z,19.70
2023-03-11T01:12:49.949Z,19.00
2023-03-11T01:15:37.336Z,20.20
2023-03-11T01:18:05.745Z,17.73
2023-03-11T01:20:32.718Z,21.98
2023-03-11T01:22:59.590Z,20.77
2023-03-11T01:25:26.627Z,22.75
2023-03-11T01:27:53.432Z,19.63
2023-03-11T01:30:22.948Z,19.30
2023-03-11T01:32:50.845Z,19.00
2023-03-11T01:35:19.740Z,16.65
2023-03-11T01:37:47.236Z,16.60
2023-03-11T01:40:44.537Z,15.60
2023-03-11T01:43:39.900Z,12.55
2023-03-11T01:46:28.293Z,15.38
2023-03-11T01:48:57.673Z,10.05
2023-03-11T01:51:37.279Z,8.52
2023-03-11T01:54:16.602Z,7.43
2023-03-11T01:56:44.443Z,5.25
2023-03-11T01:59:14.009Z,5.72
2023-03-11T02:01:52.348Z,4.00
2023-03-11T02:04:20.084Z,3.30
2023-03-11T02:06:47.506Z,2.95
2023-03-11T02:09:14.240Z,3.60
2023-03-11T02:11:40.933Z,2.25
2023-03-11T02:14:09.383Z,2.35
2023-03-11T02:16:36.746Z,1.92
2023-03-11T02:19:18.511Z,2.63
2023-03-11T02:21:45.690Z,2.17
2023-03-11T02:24:36.082Z,3.80
2023-03-11T02:27:14.158Z,1.58
2023-03-11T02:29:43.625Z,2.70
2023-03-11T02:32:11.165Z,2.35
2023-03-11T02:34:42.549Z,2.22
2023-03-11T02:37:11.989Z,2.20
2023-03-11T02:39:44.569Z,3.13
2023-03-11T02:42:28.660Z,2.85
2023-03-11T02:45:08.246Z,3.08
2023-03-11T02:47:39.712Z,2.45
2023-03-11T02:50:09.713Z,3.28
2023-03-11T02:52:36.678Z,3.30
2023-03-11T02:55:04.472Z,3.58
2023-03-11T02:57:31.453Z,4.35
2023-03-11T02:59:58.125Z,4.53
2023-03-11T03:02:24.825Z,5.88
2023-03-11T03:04:51.975Z,5.50
2023-03-11T03:07:21.946Z,5.13
2023-03-11T03:09:48.665Z,4.88
2023-03-11T03:12:15.285Z,5.20
2023-03-11T03:14:41.943Z,6.03
2023-03-11T03:17:09.356Z,5.30
2023-03-11T03:19:36.664Z,6.20
2023-03-11T03:22:03.435Z,6.68
2023-03-11T03:24:30.176Z,5.70
2023-03-11T03:26:56.878Z,5.35
2023-03-11T03:29:23.765Z,6.00
2023-03-11T03:31:50.677Z,6.72
2023-03-11T03:34:17.913Z,6.97
2023-03-11T03:36:45.983Z,6.18
2023-03-11T03:39:12.735Z,10.20
2023-03-11T03:41:39.470Z,6.72
2023-03-11T03:44:06.499Z,7.20
2023-03-11T03:46:33.226Z,7.00
2023-03-11T03:48:59.982Z,8.05
2023-03-11T03:51:26.736Z,8.77
2023-03-11T03:53:53.391Z,7.55
2023-03-11T03:56:20.180Z,8.38
2023-03-11T03:58:46.944Z,8.05
2023-03-11T04:01:13.789Z,6.88
2023-03-11T04:03:40.753Z,7.10
2023-03-11T04:06:20.267Z,7.10
2023-03-11T04:08:47.397Z,7.85
2023-03-11T04:11:14.489Z,6.78
2023-03-11T04:13:44.708Z,5.40
2023-03-11T04:16:19.915Z,6.65
2023-03-11T04:18:47.583Z,6.28
2023-03-11T04:21:14.600Z,6.38
2023-03-11T04:23:41.309Z,6.88
2023-03-11T04:26:07.905Z,6.47
2023-03-11T04:28:34.516Z,4.53
2023-03-11T04:31:01.249Z,4.20
2023-03-11T04:33:27.954Z,5.57
2023-03-11T04:35:54.678Z,3.72
2023-03-11T04:38:21.343Z,3.97
2023-03-11T04:40:48.161Z,4.18
2023-03-11T04:43:14.753Z,3.90
2023-03-11T04:45:42.476Z,4.50
2023-03-11T04:48:09.344Z,2.50
2023-03-11T04:50:35.978Z,3.63
2023-03-11T04:53:02.954Z,3.13
2023-03-11T04:55:29.608Z,3.58
2023-03-11T04:57:56.177Z,3.95
2023-03-11T05:00:24.996Z,3.58
2023-03-11T05:02:51.867Z,3.35
2023-03-11T05:05:21.753Z,3.22
2023-03-11T05:07:48.719Z,2.85
2023-03-11T05:10:22.321Z,3.25
2023-03-11T05:12:52.712Z,3.53
2023-03-11T05:15:19.752Z,3.83
2023-03-11T05:17:46.425Z,3.90
2023-03-11T05:20:15.558Z,4.03
2023-03-11T05:22:42.627Z,5.32
2023-03-11T05:25:09.639Z,3.90
2023-03-11T05:27:36.249Z,3.80
2023-03-11T05:30:03.006Z,3.42
2023-03-11T05:32:29.623Z,4.60
2023-03-11T05:34:56.246Z,4.85
2023-03-11T05:37:22.900Z,4.57
2023-03-11T05:39:49.522Z,3.92
2023-03-11T05:42:16.133Z,4.43
2023-03-11T05:44:42.787Z,3.80
2023-03-11T05:47:09.426Z,4.20
2023-03-11T05:49:36.012Z,3.55
2023-03-11T05:52:03.055Z,3.70
2023-03-11T05:54:30.156Z,4.78
2023-03-11T05:56:56.793Z,3.65
2023-03-11T05:59:24.032Z,5.70
2023-03-11T06:01:50.652Z,6.85
2023-03-11T06:04:17.476Z,6.57
2023-03-11T06:06:44.153Z,7.05
2023-03-11T06:09:14.638Z,5.35
2023-03-11T06:11:41.653Z,6.55
2023-03-11T06:14:12.252Z,6.18
2023-03-11T06:16:39.249Z,5.57
2023-03-11T06:19:05.911Z,6.03
2023-03-11T06:21:32.746Z,6.80
2023-03-11T06:23:59.499Z,7.78
2023-03-11T06:26:26.153Z,8.50
2023-03-11T06:28:52.983Z,8.20
2023-03-11T06:31:25.565Z,9.48
2023-03-11T06:33:52.932Z,9.93
2023-03-11T06:36:20.609Z,11.00
2023-03-11T06:38:48.490Z,11.65
2023-03-11T06:41:15.090Z,9.90
2023-03-11T06:43:42.081Z,12.95
2023-03-11T06:46:11.867Z,9.82
2023-03-11T06:48:38.649Z,13.63
2023-03-11T06:51:05.627Z,7.55
2023-03-11T06:53:32.561Z,9.20
2023-03-11T06:56:02.851Z,14.07
2023-03-11T06:58:30.246Z,10.98
2023-03-11T07:01:20.979Z,8.85
2023-03-11T07:03:49.368Z,15.25
2023-03-11T07:06:25.046Z,12.50
2023-03-11T07:08:52.845Z,11.85
2023-03-11T07:11:21.925Z,17.48
2023-03-11T07:13:48.616Z,11.70
2023-03-11T07:16:18.600Z,12.10
2023-03-11T07:18:46.714Z,9.88
2023-03-11T07:21:18.981Z,12.60
2023-03-11T07:23:46.132Z,10.85
2023-03-11T07:26:14.657Z,10.13
2023-03-11T07:28:42.161Z,11.52
2023-03-11T07:31:29.839Z,10.32
2023-03-11T07:34:02.117Z,12.10
2023-03-11T07:36:29.594Z,9.40
2023-03-11T07:39:04.205Z,12.68
2023-03-11T07:41:33.400Z,14.02
2023-03-11T07:44:01.250Z,12.15
2023-03-11T07:46:29.521Z,9.88
2023-03-11T07:48:56.262Z,12.82
2023-03-11T07:51:25.564Z,10.32
2023-03-11T07:53:54.478Z,8.30
2023-03-11T07:56:23.727Z,12.52
2023-03-11T07:58:51.005Z,12.60
2023-03-11T08:01:23.314Z,13.27
2023-03-11T08:03:51.882Z,12.43
2023-03-11T08:06:27.569Z,11.60
2023-03-11T08:08:54.202Z,10.93
2023-03-11T08:11:21.519Z,14.52
2023-03-11T08:13:48.818Z,8.60
2023-03-11T08:16:18.352Z,10.90
2023-03-11T08:18:46.793Z,12.80
2023-03-11T08:21:25.739Z,13.80
2023-03-11T08:23:56.573Z,10.95
2023-03-11T08:26:23.721Z,11.77
2023-03-11T08:28:50.435Z,11.38
2023-03-11T08:31:19.738Z,11.68
2023-03-11T08:33:49.985Z,11.93
2023-03-11T08:36:17.495Z,10.07
2023-03-11T08:38:44.140Z,12.57
2023-03-11T08:41:10.876Z,10.50
2023-03-11T08:43:37.523Z,12.13
2023-03-11T08:46:08.786Z,16.20
2023-03-11T08:48:37.439Z,10.82
2023-03-11T08:51:10.242Z,12.60
2023-03-11T08:53:37.782Z,14.23
2023-03-11T08:56:04.949Z,15.07
2023-03-11T08:58:31.626Z,9.45
2023-03-11T09:00:58.386Z,11.13
2023-03-11T09:03:25.162Z,12.32
2023-03-11T09:06:02.578Z,7.95
2023-03-11T09:08:30.006Z,9.82
2023-03-11T09:10:56.682Z,12.25
2023-03-11T09:13:23.373Z,7.95
2023-03-11T09:15:51.130Z,10.45
2023-03-11T09:18:18.082Z,10.27
2023-03-11T09:20:45.211Z,11.30
2023-03-11T09:23:14.422Z,9.73
2023-03-11T09:25:41.077Z,11.45
2023-03-11T09:28:07.695Z,12.18
2023-03-11T09:30:34.618Z,9.43
2023-03-11T09:33:01.370Z,14.27
2023-03-11T09:35:29.467Z,15.05
2023-03-11T09:37:56.236Z,11.13
2023-03-11T09:40:25.608Z,12.43
2023-03-11T09:42:54.998Z,14.18
2023-03-11T09:45:27.573Z,11.55
2023-03-11T09:48:22.668Z,13.57
2023-03-11T09:51:02.430Z,8.10
2023-03-11T09:53:41.357Z,9.68
2023-03-11T09:56:11.852Z,8.45
2023-03-11T09:58:49.145Z,8.77
2023-03-11T10:01:18.593Z,10.20
2023-03-11T10:03:46.577Z,12.10
2023-03-11T10:06:28.887Z,10.75
2023-03-11T10:09:24.918Z,11.57
2023-03-11T10:12:20.256Z,10.63
2023-03-11T10:15:14.841Z,11.68
2023-03-11T10:17:56.649Z,13.52
2023-03-11T10:20:54.658Z,16.77
2023-03-11T10:23:54.852Z,13.75
2023-03-11T10:26:41.897Z,13.23
2023-03-11T10:29:20.967Z,17.23
2023-03-11T10:32:26.023Z,14.65
2023-03-11T10:35:21.051Z,16.50
2023-03-11T10:37:59.624Z,17.38
2023-03-11T10:40:31.134Z,17.02
2023-03-11T10:43:03.212Z,14.53
2023-03-11T10:45:36.909Z,14.02
2023-03-11T10:48:09.415Z,15.40
2023-03-11T10:53:15.323Z,17.02
2023-03-11T10:55:57.460Z,15.80
2023-03-11T10:58:30.176Z,17.77
2023-03-11T11:01:14.669Z,15.60
2023-03-11T11:03:43.938Z,13.77
2023-03-11T11:06:29.013Z,18.00
2023-03-11T11:09:19.776Z,14.18
2023-03-11T11:12:06.873Z,14.80
2023-03-11T11:14:51.897Z,13.88
2023-03-11T11:17:31.995Z,12.90
2023-03-11T11:20:00.812Z,15.93
2023-03-11T11:22:28.668Z,12.80
2023-03-11T11:24:56.253Z,16.25
2023-03-11T11:27:26.329Z,13.13
2023-03-11T11:30:11.091Z,14.05
2023-03-11T11:32:38.343Z,12.10
2023-03-11T11:35:08.318Z,11.23
2023-03-11T11:37:37.782Z,12.15
2023-03-11T11:40:16.885Z,15.95
2023-03-11T11:42:55.792Z,14.93
2023-03-11T11:45:43.129Z,13.68
2023-03-11T11:48:43.941Z,12.20
2023-03-11T11:51:21.414Z,11.65
2023-03-11T11:54:15.386Z,11.13
2023-03-11T11:56:42.144Z,11.10
2023-03-11T11:59:20.516Z,12.80
2023-03-11T12:02:19.985Z,11.95
2023-03-11T12:04:49.194Z,9.77
2023-03-11T12:08:00.224Z,10.57
2023-03-11T12:10:36.873Z,10.98
2023-03-11T12:13:32.526Z,14.15
2023-03-11T12:16:17.180Z,13.52
2023-03-11T12:18:56.455Z,10.68
2023-03-11T12:22:02.408Z,11.82
2023-03-11T12:24:51.091Z,10.90
2023-03-11T12:27:26.732Z,16.02
2023-03-11T12:29:57.961Z,11.65
2023-03-11T12:32:36.858Z,13.48
2023-03-11T12:35:27.816Z,9.57
2023-03-11T12:38:18.188Z,12.23
2023-03-11T12:40:44.767Z,9.98
2023-03-11T12:43:35.865Z,10.93
2023-03-11T12:46:10.606Z,11.27
2023-03-11T12:48:45.523Z,9.07
2023-03-11T12:51:27.462Z,9.68
2023-03-11T12:53:57.032Z,11.90
2023-03-11T12:56:35.790Z,8.60
2023-03-11T12:59:23.581Z,10.23
2023-03-11T13:02:19.734Z,10.18
2023-03-11T13:04:53.438Z,12.18
2023-03-11T13:07:22.826Z,8.55
2023-03-11T13:10:01.379Z,8.65
2023-03-11T13:12:54.495Z,8.35
2023-03-11T13:15:21.068Z,12.05
2023-03-11T13:18:18.808Z,11.25
2023-03-11T13:20:49.371Z,9.13
2023-03-11T13:23:34.423Z,10.80
2023-03-11T13:26:09.890Z,7.70
2023-03-11T13:29:04.754Z,10.30
2023-03-11T13:31:48.911Z,8.68
2023-03-11T13:34:23.154Z,10.80
2023-03-11T13:37:13.339Z,8.48
2023-03-11T13:39:52.128Z,12.05
2023-03-11T13:42:28.180Z,10.25
2023-03-11T13:44:55.077Z,9.65
2023-03-11T13:47:23.613Z,12.20
2023-03-11T13:50:05.599Z,12.23
2023-03-11T13:52:35.628Z,12.85
2023-03-11T13:55:07.494Z,10.70
2023-03-11T13:57:36.718Z,12.77
2023-03-11T14:00:05.842Z,14.38
2023-03-11T14:02:32.452Z,14.73
2023-03-11T14:05:16.345Z,12.65
2023-03-11T14:07:43.005Z,14.35
2023-03-11T14:10:20.459Z,11.65
2023-03-11T14:12:47.529Z,15.95
2023-03-11T14:15:26.874Z,11.77
2023-03-11T14:18:14.420Z,15.73
2023-03-11T14:20:41.162Z,8.88
2023-03-11T14:23:18.468Z,9.30
2023-03-11T14:25:45.239Z,11.20
2023-03-11T14:28:20.607Z,10.05
2023-03-11T14:31:01.447Z,9.35
2023-03-11T14:33:28.474Z,7.43
2023-03-11T14:36:02.109Z,11.35
2023-03-11T14:38:32.217Z,6.72
2023-03-11T14:41:04.407Z,9.55
2023-03-11T14:43:40.255Z,6.78
2023-03-11T14:46:08.087Z,5.80
2023-03-11T14:48:43.863Z,5.70
2023-03-11T14:51:19.838Z,9.07
2023-03-11T14:53:53.252Z,4.55
2023-03-11T14:56:22.277Z,5.57
2023-03-11T14:59:07.907Z,5.72
2023-03-11T15:01:43.442Z,10.52
2023-03-11T15:04:14.191Z,5.18
2023-03-11T15:06:44.127Z,9.35
2023-03-11T15:09:18.172Z,8.05
2023-03-11T15:11:59.548Z,8.50
2023-03-11T15:14:27.806Z,5.28
2023-03-11T15:16:55.851Z,7.80
2023-03-11T15:19:28.531Z,11.52
2023-03-11T15:22:02.471Z,6.25
2023-03-11T15:24:31.705Z,6.07
2023-03-11T15:27:03.296Z,6.63
2023-03-11T15:29:31.313Z,3.55
2023-03-11T15:31:59.510Z,5.25
2023-03-11T15:34:30.942Z,6.20
2023-03-11T15:37:01.638Z,5.33
2023-03-11T15:39:30.823Z,5.32
2023-03-11T15:42:01.326Z,5.10
2023-03-11T15:44:33.099Z,6.93
2023-03-11T15:47:00.883Z,7.15
2023-03-11T15:49:29.249Z,11.43
2023-03-11T15:52:03.277Z,4.13
2023-03-11T15:54:30.077Z,10.45
2023-03-11T15:56:58.451Z,5.20
2023-03-11T15:59:25.792Z,4.60
2023-03-11T16:01:52.404Z,6.97
2023-03-11T16:04:20.963Z,6.47
2023-03-11T16:07:02.858Z,6.10
2023-03-11T16:09:34.286Z,5.28
2023-03-11T16:12:02.026Z,5.45
2023-03-11T16:14:28.680Z,4.90
2023-03-11T16:16:55.444Z,6.22
2023-03-11T16:19:22.026Z,3.42
2023-03-11T16:21:50.562Z,6.82
2023-03-11T16:24:22.778Z,6.55
2023-03-11T16:26:52.251Z,6.97
2023-03-11T16:29:20.204Z,10.25
2023-03-11T16:31:50.484Z,3.72
2023-03-11T16:34:17.178Z,10.77
2023-03-11T16:36:43.839Z,5.82
2023-03-11T16:39:10.429Z,6.13
2023-03-11T16:41:42.565Z,4.68
2023-03-11T16:44:09.961Z,7.32
2023-03-11T16:46:37.246Z,6.82
2023-03-11T16:49:04.243Z,13.13
2023-03-11T16:51:31.322Z,6.85
2023-03-11T16:53:58.277Z,5.50
2023-03-11T16:56:25.199Z,6.78
2023-03-11T16:58:52.109Z,6.28
2023-03-11T17:01:19.255Z,7.18
2023-03-11T17:03:48.699Z,8.02
2023-03-11T17:06:17.304Z,8.05
2023-03-11T17:08:49.242Z,8.40
2023-03-11T17:11:21.212Z,11.20
2023-03-11T17:13:47.841Z,10.43
2023-03-11T17:16:14.569Z,9.45
2023-03-11T17:18:41.406Z,10.00
2023-03-11T17:21:14.144Z,8.43
2023-03-11T17:23:41.649Z,7.85
2023-03-11T17:26:14.498Z,9.80
2023-03-11T17:28:41.709Z,7.07
2023-03-11T17:31:15.007Z,19.33
2023-03-11T17:33:42.185Z,14.07
2023-03-11T17:36:11.441Z,15.02
2023-03-11T17:38:38.091Z,5.95
2023-03-11T17:41:10.929Z,10.68
2023-03-11T17:43:37.549Z,8.82
2023-03-11T17:46:14.333Z,9.10
2023-03-11T17:48:42.108Z,8.90
2023-03-11T17:51:10.748Z,8.43
2023-03-11T17:53:38.685Z,15.95
2023-03-11T17:56:07.045Z,10.32
2023-03-11T17:58:34.948Z,18.77
2023-03-11T18:01:07.559Z,10.77
2023-03-11T18:03:34.289Z,7.40
2023-03-11T18:06:05.435Z,12.48
2023-03-11T18:08:35.304Z,9.20
2023-03-11T18:11:05.604Z,9.40
2023-03-11T18:13:33.766Z,11.85
2023-03-11T18:16:03.881Z,7.40
2023-03-11T18:18:32.183Z,9.60
2023-03-11T18:21:14.341Z,13.35
2023-03-11T18:23:41.251Z,7.70
2023-03-11T18:26:10.806Z,10.43
2023-03-11T18:28:37.436Z,11.25
2023-03-11T18:31:16.200Z,11.60
2023-03-11T18:33:46.978Z,8.13
2023-03-11T18:36:21.121Z,13.25
2023-03-11T18:38:48.908Z,8.90
2023-03-11T18:41:15.971Z,12.15
2023-03-11T18:43:42.745Z,13.82
2023-03-11T18:46:11.762Z,11.05
2023-03-11T18:48:38.914Z,10.48
2023-03-11T18:51:07.234Z,14.82
2023-03-11T18:53:34.364Z,8.00
2023-03-11T18:56:07.214Z,11.80
2023-03-11T18:58:33.904Z,7.60
2023-03-11T19:01:08.825Z,6.72
2023-03-11T19:03:35.780Z,7.50
2023-03-11T19:06:02.454Z,10.07
2023-03-11T19:08:29.313Z,9.27
2023-03-11T19:10:56.513Z,6.43
2023-03-11T19:13:23.428Z,7.45
2023-03-11T19:15:50.460Z,8.57
2023-03-11T19:18:17.060Z,5.95
2023-03-11T19:20:43.805Z,7.40
2023-03-11T19:23:11.365Z,9.10
2023-03-11T19:25:38.127Z,8.43
2023-03-11T19:28:04.870Z,6.07
2023-03-11T19:30:31.535Z,5.82
2023-03-11T19:32:58.276Z,7.72
2023-03-11T19:35:25.273Z,9.13
2023-03-11T19:37:57.125Z,6.88
2023-03-11T19:40:24.028Z,6.55
2023-03-11T19:42:50.674Z,11.57
2023-03-11T19:45:17.383Z,15.40
2023-03-11T19:47:46.550Z,8.25
2023-03-11T19:50:13.151Z,16.73
2023-03-11T19:52:39.765Z,10.38
2023-03-11T19:55:07.086Z,8.63
2023-03-11T19:57:33.749Z,9.68
2023-03-11T20:00:00.345Z,7.70
2023-03-11T20:02:26.973Z,11.10
2023-03-11T20:04:53.867Z,6.55
2023-03-11T20:07:20.678Z,9.27
2023-03-11T20:09:47.377Z,9.07
2023-03-11T20:12:14.287Z,9.18
2023-03-11T20:14:42.080Z,8.98
2023-03-11T20:17:09.422Z,11.60
2023-03-11T20:19:36.286Z,7.68
2023-03-11T20:22:03.141Z,9.77
2023-03-11T20:24:29.768Z,15.23
2023-03-11T20:26:56.467Z,10.65
2023-03-11T20:29:23.264Z,12.55
2023-03-11T20:31:50.856Z,9.40
2023-03-11T20:34:17.594Z,7.70
2023-03-11T20:36:44.245Z,6.78
2023-03-11T20:39:11.330Z,13.30
2023-03-11T20:41:40.052Z,7.57
2023-03-11T20:44:09.102Z,10.98
2023-03-11T20:46:35.883Z,10.35
2023-03-11T20:49:03.179Z,6.47
2023-03-11T20:51:29.932Z,6.85
2023-03-11T20:53:56.867Z,8.27
2023-03-11T20:56:26.282Z,13.38
2023-03-11T20:58:55.783Z,11.45
2023-03-11T21:01:28.397Z,11.25
2023-03-11T21:03:58.493Z,11.68
2023-03-11T21:06:28.284Z,6.97
2023-03-11T21:08:56.791Z,5.78
2023-03-11T21:11:26.006Z,7.15
2023-03-11T21:13:52.878Z,7.13
2023-03-11T21:16:20.132Z,7.55
2023-03-11T21:18:49.281Z,10.85
2023-03-11T21:21:17.705Z,9.00
2023-03-11T21:23:45.263Z,8.57
2023-03-11T21:26:13.849Z,7.72
2023-03-11T21:28:42.350Z,13.55
2023-03-11T21:31:15.446Z,8.35
2023-03-11T21:33:42.647Z,12.05
2023-03-11T21:36:11.033Z,8.75
2023-03-11T21:38:39.885Z,11.35
2023-03-11T21:41:12.274Z,8.45
2023-03-11T21:43:39.926Z,9.70
2023-03-11T21:46:08.220Z,10.57
2023-03-11T21:48:35.097Z,10.07
2023-03-11T21:51:02.626Z,9.30
2023-03-11T21:53:30.115Z,8.90
2023-03-11T21:55:57.163Z,8.13
2023-03-11T21:58:23.768Z,7.90
2023-03-11T22:00:50.614Z,5.38
2023-03-11T22:03:17.492Z,6.70
2023-03-11T22:05:44.318Z,12.85
2023-03-11T22:08:11.509Z,7.75
2023-03-11T22:10:38.871Z,9.05
2023-03-11T22:13:05.590Z,7.50
2023-03-11T22:15:32.249Z,6.22
2023-03-11T22:17:58.835Z,10.50
2023-03-11T22:20:25.812Z,8.90
2023-03-11T22:22:54.240Z,19.50
2023-03-11T22:25:20.942Z,9.45
2023-03-11T22:27:47.612Z,5.38
2023-03-11T22:30:14.642Z,8.23
2023-03-11T22:32:41.315Z,5.88
2023-03-11T22:35:08.238Z,10.20
2023-03-11T22:37:35.382Z,7.72
2023-03-11T22:40:01.944Z,7.20
2023-03-11T22:42:28.529Z,5.60
2023-03-11T22:44:55.112Z,3.33
2023-03-11T22:47:21.719Z,7.07
2023-03-11T22:49:48.428Z,7.78
2023-03-11T22:52:16.073Z,5.32
2023-03-11T22:54:43.563Z,8.23
2023-03-11T22:57:10.194Z,12.00
2023-03-11T22:59:36.839Z,7.00
2023-03-11T23:02:03.446Z,7.28
2023-03-11T23:04:30.157Z,5.55
2023-03-11T23:06:57.342Z,5.78
2023-03-11T23:09:24.753Z,10.50
2023-03-11T23:11:52.877Z,12.90
2023-03-11T23:14:23.736Z,7.10
2023-03-11T23:16:54.683Z,5.55
2023-03-11T23:19:21.293Z,5.90
2023-03-11T23:21:47.878Z,7.18
2023-03-11T23:24:14.463Z,8.82
2023-03-11T23:26:41.050Z,8.25
2023-03-11T23:29:07.626Z,7.95
2023-03-11T23:31:34.297Z,9.73
2023-03-11T23:34:00.905Z,6.28
2023-03-11T23:36:30.328Z,5.40
2023-03-11T23:38:58.311Z,6.82
2023-03-11T23:41:25.328Z,9.68
2023-03-11T23:43:52.217Z,8.88
2023-03-11T23:46:18.953Z,5.38
2023-03-11T23:48:45.701Z,9.25
2023-03-11T23:51:12.434Z,8.07
2023-03-11T23:53:39.233Z,12.13
2023-03-11T23:56:11.002Z,9.93
2023-03-11T23:58:37.602Z,7.35
